sensor_id;sensor_type;location;lat;lon;timestamp;P1;P2;P0
47709;PMS7003;33473;51.640;5.892;2023-09-30T00:08:21;5.77;6.88;4.48
47709;PMS7003;33473;51.640;5.892;2023-09-30T00:21:41;11.17;7.09;4.48
47709;PMS7003;33473;51.640;5.892;2023-09-30T00:35:00;5.29;7.75;4.91
47709;PMS7003;33473;51.640;5.892;2023-09-30T00:48:22;5.05;7.31;4.7
47709;PMS7003;33473;51.640;5.892;2023-09-30T01:01:43;6.37;8.08;5.24
47709;PMS7003;33473;51.640;5.892;2023-09-30T01:15:04;5.89;8.29;5.02
47709;PMS7003;33473;51.640;5.892;2023-09-30T01:28:24;6.49;7.86;5.13
47709;PMS7003;33473;51.640;5.892;2023-09-30T01:41:45;6.97;8.95;5.9
47709;PMS7003;33473;51.640;5.892;2023-09-30T01:55:05;7.93;9.17;6.0
47709;PMS7003;33473;51.640;5.892;2023-09-30T02:08:26;8.41;9.27;6.11
47709;PMS7003;33473;51.640;5.892;2023-09-30T02:21:46;7.57;9.93;6.22
47709;PMS7003;33473;51.640;5.892;2023-09-30T02:35:06;8.89;11.35;6.77
47709;PMS7003;33473;51.640;5.892;2023-09-30T02:48:26;8.17;10.26;6.66
47709;PMS7003;33473;51.640;5.892;2023-09-30T03:01:45;6.73;9.38;6.11
47709;PMS7003;33473;51.640;5.892;2023-09-30T03:15:07;10.45;11.24;7.42
47709;PMS7003;33473;51.640;5.892;2023-09-30T03:28:26;9.13;11.35;7.31
47709;PMS7003;33473;51.640;5.892;2023-09-30T03:41:48;10.33;12.22;7.64
47709;PMS7003;33473;51.640;5.892;2023-09-30T03:55:09;11.05;12.87;8.18
47709;PMS7003;33473;51.640;5.892;2023-09-30T04:08:29;11.41;13.42;8.62
47709;PMS7003;33473;51.640;5.892;2023-09-30T04:21:50;11.89;12.98;8.4
47709;PMS7003;33473;51.640;5.892;2023-09-30T04:35:10;11.05;13.09;9.06
47709;PMS7003;33473;51.640;5.892;2023-09-30T04:48:31;11.41;13.2;8.95
47709;PMS7003;33473;51.640;5.892;2023-09-30T05:01:52;10.69;12.76;8.51
47709;PMS7003;33473;51.640;5.892;2023-09-30T05:15:12;12.01;13.85;9.17
47709;PMS7003;33473;51.640;5.892;2023-09-30T05:28:32;13.57;13.74;9.27
47709;PMS7003;33473;51.640;5.892;2023-09-30T05:41:51;15.13;15.05;10.26
47709;PMS7003;33473;51.640;5.892;2023-09-30T05:55:11;14.65;14.83;10.26
47709;PMS7003;33473;51.640;5.892;2023-09-30T06:08:31;14.77;16.14;10.58
47709;PMS7003;33473;51.640;5.892;2023-09-30T06:21:52;15.97;16.58;10.8
47709;PMS7003;33473;51.640;5.892;2023-09-30T06:48:33;18.25;18.21;12.0
47709;PMS7003;33473;51.640;5.892;2023-09-30T07:01:54;18.61;18.65;12.44
47709;PMS7003;33473;51.640;5.892;2023-09-30T07:15:16;19.57;18.98;12.44
47709;PMS7003;33473;51.640;5.892;2023-09-30T07:28:37;18.37;18.1;11.89
47709;PMS7003;33473;51.640;5.892;2023-09-30T07:41:57;15.73;16.14;10.36
47709;PMS7003;33473;51.640;5.892;2023-09-30T07:55:18;12.97;14.18;8.95
47709;PMS7003;33473;51.640;5.892;2023-09-30T08:08:39;10.93;12.11;7.75
47709;PMS7003;33473;51.640;5.892;2023-09-30T08:22:00;11.17;12.11;8.08
47709;PMS7003;33473;51.640;5.892;2023-09-30T08:35:22;11.41;11.24;7.53
47709;PMS7003;33473;51.640;5.892;2023-09-30T08:48:43;8.89;9.93;6.44
47709;PMS7003;33473;51.640;5.892;2023-09-30T09:02:04;7.69;9.49;6.11
47709;PMS7003;33473;51.640;5.892;2023-09-30T09:15:24;9.01;11.13;6.88
47709;PMS7003;33473;51.640;5.892;2023-09-30T09:28:45;9.13;11.35;7.53
47709;PMS7003;33473;51.640;5.892;2023-09-30T09:42:05;9.85;11.13;7.53
47709;PMS7003;33473;51.640;5.892;2023-09-30T09:55:26;9.37;10.15;6.99
47709;PMS7003;33473;51.640;5.892;2023-09-30T10:08:46;4.93;7.09;5.02
47709;PMS7003;33473;51.640;5.892;2023-09-30T10:22:07;4.57;7.2;4.91
47709;PMS7003;33473;51.640;5.892;2023-09-30T10:35:28;2.88;5.24;3.39
47709;PMS7003;33473;51.640;5.892;2023-09-30T10:48:50;2.76;5.46;3.39
47709;PMS7003;33473;51.640;5.892;2023-09-30T11:02:11;4.21;5.35;3.93
47709;PMS7003;33473;51.640;5.892;2023-09-30T11:15:31;3.36;5.24;3.28
47709;PMS7003;33473;51.640;5.892;2023-09-30T11:28:52;0.72;3.17;2.08
47709;PMS7003;33473;51.640;5.892;2023-09-30T11:42:12;0.48;2.84;1.97
47709;PMS7003;33473;51.640;5.892;2023-09-30T11:55:31;0.72;3.17;2.08
47709;PMS7003;33473;51.640;5.892;2023-09-30T12:08:51;0.01;2.62;1.64
47709;PMS7003;33473;51.640;5.892;2023-09-30T12:22:12;0.01;2.73;1.86
47709;PMS7003;33473;51.640;5.892;2023-09-30T12:35:33;0.01;2.95;1.75
47709;PMS7003;33473;51.640;5.892;2023-09-30T12:48:53;1.08;3.5;2.41
47709;PMS7003;33473;51.640;5.892;2023-09-30T13:02:14;2.4;3.93;2.73
47709;PMS7003;33473;51.640;5.892;2023-09-30T13:15:34;1.2;3.28;2.3
47709;PMS7003;33473;51.640;5.892;2023-09-30T13:28:54;0.84;3.71;2.41
47709;PMS7003;33473;51.640;5.892;2023-09-30T13:42:15;1.32;4.15;2.41
47709;PMS7003;33473;51.640;5.892;2023-09-30T13:55:35;1.32;4.04;2.3
47709;PMS7003;33473;51.640;5.892;2023-09-30T14:08:56;2.04;4.26;2.52
47709;PMS7003;33473;51.640;5.892;2023-09-30T14:22:17;1.2;4.15;2.41
47709;PMS7003;33473;51.640;5.892;2023-09-30T14:35:38;1.32;4.26;2.62
47709;PMS7003;33473;51.640;5.892;2023-09-30T14:48:58;1.2;4.15;2.73
47709;PMS7003;33473;51.640;5.892;2023-09-30T15:02:18;1.44;4.37;2.73
47709;PMS7003;33473;51.640;5.892;2023-09-30T15:15:39;2.4;5.24;3.71
47709;PMS7003;33473;51.640;5.892;2023-09-30T15:28:59;2.64;4.7;3.17
47709;PMS7003;33473;51.640;5.892;2023-09-30T15:42:20;2.16;5.24;3.39
47709;PMS7003;33473;51.640;5.892;2023-09-30T15:55:41;4.81;6.0;4.04
47709;PMS7003;33473;51.640;5.892;2023-09-30T16:09:02;4.09;6.88;4.59
47709;PMS7003;33473;51.640;5.892;2023-09-30T16:22:22;6.73;8.62;5.57
47709;PMS7003;33473;51.640;5.892;2023-09-30T16:35:43;8.89;9.93;6.77
47709;PMS7003;33473;51.640;5.892;2023-09-30T16:49:04;7.93;10.36;6.99
47709;PMS7003;33473;51.640;5.892;2023-09-30T17:02:24;8.53;10.04;6.99
47709;PMS7003;33473;51.640;5.892;2023-09-30T17:15:44;10.09;11.35;7.53
47709;PMS7003;33473;51.640;5.892;2023-09-30T17:29:03;9.25;11.13;7.31
47709;PMS7003;33473;51.640;5.892;2023-09-30T17:42:23;9.13;11.24;7.64
47709;PMS7003;33473;51.640;5.892;2023-09-30T17:55:44;9.25;11.56;7.75
47709;PMS7003;33473;51.640;5.892;2023-09-30T18:09:04;10.33;12.33;8.62
47709;PMS7003;33473;51.640;5.892;2023-09-30T18:22:23;10.81;12.44;8.84
47709;PMS7003;33473;51.640;5.892;2023-09-30T18:35:43;13.45;12.65;8.51
47709;PMS7003;33473;51.640;5.892;2023-09-30T18:49:04;14.17;15.27;10.36
47709;PMS7003;33473;51.640;5.892;2023-09-30T19:02:26;12.49;14.29;9.49
47709;PMS7003;33473;51.640;5.892;2023-09-30T19:15:47;14.77;16.58;11.24
47709;PMS7003;33473;51.640;5.892;2023-09-30T19:29:07;24.61;22.14;14.83
47709;PMS7003;33473;51.640;5.892;2023-09-30T19:42:26;18.73;18.65;12.54
47709;PMS7003;33473;51.640;5.892;2023-09-30T19:55:47;16.69;16.69;11.02
47709;PMS7003;33473;51.640;5.892;2023-09-30T20:09:09;17.29;17.45;11.45
47709;PMS7003;33473;51.640;5.892;2023-09-30T20:22:30;17.17;17.12;11.24
47709;PMS7003;33473;51.640;5.892;2023-09-30T20:35:51;15.49;16.9;11.24
47709;PMS7003;33473;51.640;5.892;2023-09-30T20:49:11;16.69;17.01;11.56
47709;PMS7003;33473;51.640;5.892;2023-09-30T21:02:32;17.65;17.34;11.78
47709;PMS7003;33473;51.640;5.892;2023-09-30T21:15:53;16.33;17.01;11.35
47709;PMS7003;33473;51.640;5.892;2023-09-30T21:29:15;16.45;17.67;11.67
47709;PMS7003;33473;51.640;5.892;2023-09-30T21:42:34;16.21;17.23;11.89
47709;PMS7003;33473;51.640;5.892;2023-09-30T21:55:54;18.37;18.21;11.89
47709;PMS7003;33473;51.640;5.892;2023-09-30T22:09:15;17.65;17.78;11.89
47709;PMS7003;33473;51.640;5.892;2023-09-30T22:35:56;17.77;17.78;11.56
47709;PMS7003;33473;51.640;5.892;2023-09-30T22:49:18;15.73;16.9;11.45
47709;PMS7003;33473;51.640;5.892;2023-09-30T23:02:39;16.45;16.58;11.35
47709;PMS7003;33473;51.640;5.892;2023-09-30T23:16:00;15.73;17.01;11.24
47709;PMS7003;33473;51.640;5.892;2023-09-30T23:29:22;14.77;16.47;11.56
47709;PMS7003;33473;51.640;5.892;2023-09-30T23:42:43;16.33;17.01;11.45
47709;PMS7003;33473;51.640;5.892;2023-09-30T23:56:04;15.49;16.25;11.24
